Time;durP1;ratioP1;P1;durP2;ratioP2;P2;SDS_P1;SDS_P2;PMS_P1;PMS_P2;Temp;Humidity;BMP_temperature;BMP_pressure;BME280_temperature;BME280_humidity;BME280_pressure;Samples;Min_cycle;Max_cycle;Signal;HPM_P1;HPM_P2
2022/06/12 19:31:52;;;;;;;5.93;2.40;;;;;;;;;;5118115;27;20426;-78
2022/06/12 19:34:18;;;;;;;7.75;1.98;;;;;;;;;;5113329;28;20032;-78
2022/06/12 19:36:46;;;;;;;6.43;2.08;;;;;;;;;;5115553;28;20047;-84
2022/06/12 19:39:13;;;;;;;8.32;2.20;;;;;;;;;;5117609;28;20028;-78
2022/06/12 19:41:50;;;;;;;8.40;2.22;;;;;;;;;;5097117;28;20032;-78
2022/06/12 19:44:19;;;;;;;6.43;2.00;;;;;;;;;;5097232;28;20020;-76
2022/06/12 19:46:45;;;;;;;6.90;1.73;;;;;;;;;;5096577;28;20031;-78
2022/06/12 19:49:10;;;;;;;5.03;2.05;;;;;;;;;;5115078;28;20028;-77
2022/06/12 19:51:35;;;;;;;6.47;1.90;;;;;;;;;;5117282;28;20016;-78
2022/06/12 19:54:01;;;;;;;6.82;2.03;;;;;;;;;;5117114;28;20163;-77
2022/06/12 19:56:27;;;;;;;7.65;1.60;;;;;;;;;;5117014;28;20035;-79
2022/06/12 19:58:53;;;;;;;5.78;1.70;;;;;;;;;;5116796;28;20093;-78
2022/06/12 20:01:18;;;;;;;7.13;1.75;;;;;;;;;;5103569;28;20381;-79
2022/06/12 20:03:44;;;;;;;7.65;1.70;;;;;;;;;;5082784;28;20107;-83
2022/06/12 20:08:54;;;;;;;4.15;1.40;;;;;;;;;;5100847;28;20059;-80
2022/06/12 20:11:20;;;;;;;5.18;1.30;;;;;;;;;;5103722;28;20440;-79
2022/06/12 20:13:46;;;;;;;3.80;1.40;;;;;;;;;;5104130;28;20024;-78
2022/06/12 20:16:11;;;;;;;4.05;1.50;;;;;;;;;;5103450;28;20016;-80
2022/06/12 20:18:37;;;;;;;3.75;1.50;;;;;;;;;;5101359;28;20028;-81
2022/06/12 20:21:07;;;;;;;5.13;1.45;;;;;;;;;;5106892;28;20028;-77
2022/06/12 20:23:34;;;;;;;8.05;1.38;;;;;;;;;;5109447;28;20039;-76
2022/06/12 20:26:00;;;;;;;2.70;1.13;;;;;;;;;;5115567;28;20316;-78
2022/06/12 20:28:26;;;;;;;3.70;1.30;;;;;;;;;;5116687;28;20250;-78
2022/06/12 20:30:57;;;;;;;3.65;1.40;;;;;;;;;;5104472;28;20099;-78
2022/06/12 20:33:25;;;;;;;3.25;1.20;;;;;;;;;;5076987;28;20020;-78
2022/06/12 20:35:51;;;;;;;3.42;1.30;;;;;;;;;;5088010;28;20052;-79
2022/06/12 20:38:17;;;;;;;4.90;1.70;;;;;;;;;;5093529;28;20288;-80
2022/06/12 20:40:43;;;;;;;4.25;1.20;;;;;;;;;;5093344;28;20033;-78
2022/06/12 20:43:09;;;;;;;6.57;1.60;;;;;;;;;;5081641;28;20342;-78
2022/06/12 20:45:34;;;;;;;4.63;1.40;;;;;;;;;;5082505;28;20571;-78
2022/06/12 20:47:59;;;;;;;5.30;1.38;;;;;;;;;;5068154;28;20126;-77
2022/06/12 20:50:25;;;;;;;4.40;1.30;;;;;;;;;;5079407;28;20405;-77
2022/06/12 20:52:50;;;;;;;4.00;1.20;;;;;;;;;;5079345;28;20222;-77
2022/06/12 20:55:16;;;;;;;3.70;1.30;;;;;;;;;;5078467;28;20020;-77
2022/06/12 20:57:42;;;;;;;4.93;1.35;;;;;;;;;;5071768;28;20040;-77
2022/06/12 21:00:10;;;;;;;6.55;1.45;;;;;;;;;;5071682;28;20032;-79
2022/06/12 21:02:37;;;;;;;3.35;1.10;;;;;;;;;;5065127;28;20056;-79
2022/06/12 21:05:06;;;;;;;3.47;1.30;;;;;;;;;;5068747;28;20021;-78
2022/06/12 21:07:32;;;;;;;6.28;1.42;;;;;;;;;;5062381;28;20023;-79
2022/06/12 21:09:57;;;;;;;4.05;1.27;;;;;;;;;;5061834;28;20037;-77
2022/06/12 21:12:24;;;;;;;3.72;1.30;;;;;;;;;;5062484;28;20025;-78
2022/06/12 21:14:50;;;;;;;5.20;1.40;;;;;;;;;;5062913;28;20023;-79
2022/06/12 21:17:15;;;;;;;5.32;1.40;;;;;;;;;;5062870;28;20016;-78
2022/06/12 21:19:41;;;;;;;4.15;1.40;;;;;;;;;;5071610;28;20024;-78
2022/06/12 21:22:07;;;;;;;6.20;1.30;;;;;;;;;;5082259;28;20320;-78
2022/06/12 21:24:32;;;;;;;4.30;1.40;;;;;;;;;;5082741;28;20025;-78
2022/06/12 21:26:59;;;;;;;3.97;1.25;;;;;;;;;;5082102;28;20024;-79
2022/06/12 21:29:28;;;;;;;5.47;1.50;;;;;;;;;;5074708;28;20027;-77
2022/06/12 21:31:53;;;;;;;4.30;1.40;;;;;;;;;;5070372;28;20224;-78
2022/06/12 21:34:19;;;;;;;6.30;1.50;;;;;;;;;;5081200;28;20021;-78
2022/06/12 21:36:46;;;;;;;4.25;1.30;;;;;;;;;;5082304;28;20092;-79
2022/06/12 21:39:12;;;;;;;5.07;1.40;;;;;;;;;;5082196;28;20032;-79
2022/06/12 21:41:38;;;;;;;2.72;1.30;;;;;;;;;;5065639;28;20088;-79
2022/06/12 21:44:03;;;;;;;4.20;1.63;;;;;;;;;;5080165;28;20081;-79
2022/06/12 21:46:28;;;;;;;4.97;1.60;;;;;;;;;;5065576;28;20028;-79
2022/06/12 21:48:54;;;;;;;2.65;1.23;;;;;;;;;;5062312;28;20033;-80
2022/06/12 21:56:47;;;;;;;3.65;1.40;;;;;;;;;;5062175;28;20100;-79
2022/06/12 21:59:13;;;;;;;3.90;1.50;;;;;;;;;;5061615;28;20061;-80
2022/06/12 22:01:39;;;;;;;5.53;1.60;;;;;;;;;;5062399;28;20028;-78
2022/06/12 22:04:04;;;;;;;6.97;1.70;;;;;;;;;;5069574;28;20332;-79
2022/06/12 22:06:29;;;;;;;4.47;1.40;;;;;;;;;;5082412;28;20054;-80
2022/06/12 22:08:55;;;;;;;5.97;1.50;;;;;;;;;;5082222;28;20054;-79
2022/06/12 22:11:20;;;;;;;3.92;1.50;;;;;;;;;;5067847;28;20032;-79
2022/06/12 22:13:45;;;;;;;2.60;1.23;;;;;;;;;;5070733;28;20317;-81
2022/06/12 22:16:10;;;;;;;4.40;1.60;;;;;;;;;;5081568;28;20099;-81
2022/06/12 22:18:36;;;;;;;4.00;1.40;;;;;;;;;;5079919;28;20070;-82
2022/06/12 22:21:01;;;;;;;4.75;1.60;;;;;;;;;;5066208;28;20025;-80
2022/06/12 22:23:27;;;;;;;4.93;1.50;;;;;;;;;;5064444;28;20236;-80
2022/06/12 22:25:53;;;;;;;4.15;1.40;;;;;;;;;;5066467;28;20060;-79
2022/06/12 22:28:18;;;;;;;5.38;1.50;;;;;;;;;;5072380;28;20090;-80
2022/06/12 22:30:44;;;;;;;4.78;1.50;;;;;;;;;;5065239;28;20060;-79
2022/06/12 22:33:09;;;;;;;4.43;1.50;;;;;;;;;;5070915;28;20024;-79
2022/06/12 22:35:35;;;;;;;5.60;1.50;;;;;;;;;;5077642;28;20020;-77
2022/06/12 22:38:00;;;;;;;5.57;1.70;;;;;;;;;;5068890;28;20017;-79
2022/06/12 22:40:27;;;;;;;4.50;1.50;;;;;;;;;;5070197;28;20236;-82
2022/06/12 22:42:52;;;;;;;5.30;1.58;;;;;;;;;;5069278;28;20024;-78
2022/06/12 22:45:18;;;;;;;5.78;1.83;;;;;;;;;;5070758;28;20082;-80
2022/06/12 22:47:43;;;;;;;3.65;1.38;;;;;;;;;;5071539;28;20067;-81
2022/06/12 22:50:08;;;;;;;9.13;1.45;;;;;;;;;;5073053;28;20028;-77
2022/06/12 22:52:34;;;;;;;3.15;1.40;;;;;;;;;;5070999;28;20021;-78
2022/06/12 22:54:59;;;;;;;6.30;1.58;;;;;;;;;;5069384;28;20078;-79
2022/06/12 22:57:24;;;;;;;4.82;1.55;;;;;;;;;;5065747;28;20036;-80
2022/06/12 22:59:51;;;;;;;6.90;1.70;;;;;;;;;;5071545;28;20305;-79
2022/06/12 23:02:19;;;;;;;4.18;1.60;;;;;;;;;;5068813;28;20045;-78
2022/06/12 23:04:45;;;;;;;3.30;1.52;;;;;;;;;;5075806;28;20036;-78
2022/06/12 23:07:10;;;;;;;5.60;1.50;;;;;;;;;;5069665;28;20024;-78
2022/06/12 23:09:35;;;;;;;4.85;1.58;;;;;;;;;;5066081;28;20034;-79
2022/06/12 23:12:01;;;;;;;6.38;1.70;;;;;;;;;;5070796;28;20021;-79
2022/06/12 23:14:29;;;;;;;4.15;1.55;;;;;;;;;;5069864;28;20333;-78
2022/06/12 23:16:56;;;;;;;5.63;1.70;;;;;;;;;;5070094;28;20078;-80
2022/06/12 23:19:22;;;;;;;5.30;1.75;;;;;;;;;;5073085;28;20058;-78
2022/06/12 23:21:47;;;;;;;6.57;1.52;;;;;;;;;;5049831;28;20028;-79
2022/06/12 23:24:12;;;;;;;8.73;1.80;;;;;;;;;;5070036;28;20021;-79
2022/06/12 23:26:38;;;;;;;4.65;1.52;;;;;;;;;;5064808;28;20251;-79
2022/06/12 23:29:06;;;;;;;4.32;1.52;;;;;;;;;;5063676;28;20029;-78
2022/06/12 23:31:34;;;;;;;5.60;1.58;;;;;;;;;;5070724;28;20100;-79
2022/06/12 23:34:00;;;;;;;6.47;1.90;;;;;;;;;;5071335;28;20107;-80
2022/06/12 23:36:26;;;;;;;6.65;1.70;;;;;;;;;;5048751;28;20337;-79
2022/06/12 23:38:51;;;;;;;5.82;1.65;;;;;;;;;;5067153;28;20055;-80
2022/06/12 23:41:18;;;;;;;9.07;1.70;;;;;;;;;;5067367;28;20329;-80
2022/06/12 23:43:44;;;;;;;5.32;1.80;;;;;;;;;;5063071;28;20029;-80
2022/06/12 23:46:09;;;;;;;4.47;1.55;;;;;;;;;;5064425;28;20394;-79
2022/06/12 23:48:35;;;;;;;4.32;1.75;;;;;;;;;;5079325;28;20033;-79
2022/06/12 23:51:03;;;;;;;6.13;1.75;;;;;;;;;;5077834;28;20055;-80
2022/06/12 23:53:29;;;;;;;6.95;1.63;;;;;;;;;;5079246;28;20020;-80
2022/06/12 23:55:54;;;;;;;3.72;1.55;;;;;;;;;;5073910;28;20111;-80
2022/06/12 23:58:19;;;;;;;5.72;1.80;;;;;;;;;;5069325;28;20220;-81
